Time;durP1;ratioP1;P1;durP2;ratioP2;P2;SDS_P1;SDS_P2;PMS_P1;PMS_P2;Temp;Humidity;BMP_temperature;BMP_pressure;BME280_temperature;BME280_humidity;BME280_pressure;Samples;Min_cycle;Max_cycle;Signal;HPM_P1;HPM_P2
2022/11/10 00:00:57;;;;;;;18.45;8.32;;;;;;;4.68;82.44;97187.00;5092500;28;20089;-61
2022/11/10 00:03:27;;;;;;;15.50;8.88;;;;;;;4.75;82.00;97182.63;5092545;28;20139;-61
2022/11/10 00:05:55;;;;;;;14.60;7.45;;;;;;;4.80;81.72;97185.19;5092510;28;20127;-61
2022/11/10 00:08:22;;;;;;;13.60;7.00;;;;;;;4.80;81.19;97187.78;5092387;28;20052;-61
2022/11/10 00:11:00;;;;;;;12.32;7.70;;;;;;;4.80;81.04;97182.59;5094363;28;20119;-61
2022/11/10 00:13:29;;;;;;;15.25;8.30;;;;;;;4.83;81.05;97182.59;5096177;28;20052;-61
2022/11/10 00:18:45;;;;;;;11.82;7.65;;;;;;;4.85;80.11;97190.38;5096140;28;20071;-61
2022/11/10 00:21:13;;;;;;;16.33;7.68;;;;;;;4.82;79.48;97190.38;5095956;28;20048;-61
2022/11/10 00:23:40;;;;;;;14.73;7.85;;;;;;;4.74;79.91;97183.50;5095613;28;20134;-61
2022/11/10 00:26:19;;;;;;;13.48;7.53;;;;;;;4.74;79.67;97173.13;5095767;28;20052;-61
2022/11/10 00:28:46;;;;;;;13.82;7.68;;;;;;;4.72;80.16;97176.59;5095776;28;20048;-61
2022/11/10 00:31:15;;;;;;;14.60;8.35;;;;;;;4.66;80.77;97174.88;5095739;28;20044;-61
2022/11/10 00:33:43;;;;;;;18.38;8.35;;;;;;;4.53;81.95;97169.75;5095696;28;20071;-61
2022/11/10 00:36:11;;;;;;;13.45;7.80;;;;;;;4.49;81.50;97168.03;5095647;28;20079;-61
2022/11/10 00:38:38;;;;;;;13.75;7.75;;;;;;;4.48;81.30;97168.91;5095701;28;20044;-62
2022/11/10 00:41:06;;;;;;;11.43;7.65;;;;;;;4.43;80.93;97157.72;5095525;28;20048;-61
2022/11/10 00:43:33;;;;;;;14.55;8.00;;;;;;;4.38;80.87;97169.81;5095548;28;20056;-61
2022/11/10 00:46:00;;;;;;;23.05;8.02;;;;;;;4.36;81.05;97161.19;5095397;28;20139;-61
2022/11/10 00:48:28;;;;;;;16.60;8.38;;;;;;;4.36;81.32;97163.78;5095380;28;20101;-62
2022/11/10 00:50:56;;;;;;;13.13;7.35;;;;;;;4.34;81.03;97158.59;5095351;28;20079;-61
2022/11/10 00:53:23;;;;;;;12.85;7.75;;;;;;;4.34;80.42;97158.59;5095301;28;20052;-61
2022/11/10 00:55:50;;;;;;;17.63;8.27;;;;;;;4.23;81.00;97158.63;5095303;28;20048;-61
2022/11/10 00:58:17;;;;;;;16.42;8.70;;;;;;;4.14;81.68;97169.00;5095317;28;20134;-62
2022/11/10 01:00:45;;;;;;;13.70;8.38;;;;;;;4.08;82.37;97162.13;5095155;28;20102;-62
2022/11/10 01:03:14;;;;;;;17.27;8.38;;;;;;;4.09;82.24;97165.56;5095241;28;20068;-61
2022/11/10 01:05:43;;;;;;;17.20;8.90;;;;;;;4.10;82.56;97162.13;5094995;28;20048;-61
2022/11/10 01:08:11;;;;;;;18.35;8.82;;;;;;;4.15;82.78;97157.78;5094917;28;20097;-61
2022/11/10 01:10:38;;;;;;;19.52;8.35;;;;;;;4.15;84.73;97150.88;5094951;28;20097;-61
2022/11/10 01:13:05;;;;;;;19.50;9.63;;;;;;;4.24;85.62;97149.16;5094996;28;20109;-61
2022/11/10 01:15:32;;;;;;;16.38;9.20;;;;;;;4.30;86.27;97154.28;5094801;28;20135;-61
2022/11/10 01:17:59;;;;;;;18.88;9.65;;;;;;;4.46;87.02;97151.66;5094837;28;20048;-61
2022/11/10 01:20:27;;;;;;;21.30;10.00;;;;;;;4.57;86.82;97155.06;5094816;28;20044;-61
2022/11/10 01:22:55;;;;;;;18.42;10.00;;;;;;;4.66;86.33;97143.78;5093526;28;20048;-62
2022/11/10 01:25:22;;;;;;;14.65;9.25;;;;;;;4.72;85.10;97150.69;5094766;28;20529;-61
2022/11/10 01:27:51;;;;;;;21.60;9.13;;;;;;;4.71;84.81;97147.22;5094739;28;20136;-62
2022/11/10 01:30:18;;;;;;;19.92;9.75;;;;;;;4.67;85.16;97148.13;5094617;28;20040;-61
2022/11/10 01:32:45;;;;;;;21.33;10.50;;;;;;;4.74;85.79;97144.63;5094533;28;20070;-61
2022/11/10 01:35:12;;;;;;;18.95;9.40;;;;;;;4.84;85.72;97140.22;5094539;28;20051;-61
2022/11/10 01:37:40;;;;;;;20.30;9.55;;;;;;;4.87;84.79;97148.00;5094422;28;20043;-62
2022/11/10 01:40:10;;;;;;;15.68;9.05;;;;;;;4.87;84.48;97145.41;5094403;28;20048;-62
2022/11/10 01:42:48;;;;;;;16.17;9.48;;;;;;;4.88;84.09;97148.88;5094469;28;20477;-62
2022/11/10 01:45:46;;;;;;;14.95;8.80;;;;;;;4.82;84.10;97154.09;5094337;28;20051;-62
2022/11/10 01:48:17;;;;;;;15.18;8.75;;;;;;;4.85;84.04;97141.09;5093629;28;20151;-61
2022/11/10 01:50:47;;;;;;;15.82;9.23;;;;;;;4.86;82.81;97143.69;5094192;28;20135;-61
2022/11/10 01:53:20;;;;;;;13.38;8.05;;;;;;;4.80;82.97;97143.72;5094164;28;20044;-61
2022/11/10 01:55:50;;;;;;;15.77;9.43;;;;;;;4.78;83.63;97143.72;5094037;28;20140;-61
2022/11/10 01:58:21;;;;;;;20.30;9.77;;;;;;;4.82;83.87;97148.91;5094134;28;20040;-62
2022/11/10 02:00:48;;;;;;;20.13;10.02;;;;;;;4.82;82.82;97147.19;5093978;28;20705;-61
2022/11/10 02:03:20;;;;;;;15.23;9.32;;;;;;;4.82;81.82;97149.78;5094257;28;20043;-61
2022/11/10 02:05:49;;;;;;;20.98;10.60;;;;;;;4.80;81.29;97149.78;5093860;28;20046;-61
2022/11/10 02:08:18;;;;;;;18.65;9.50;;;;;;;4.78;81.27;97148.03;5093807;28;20048;-61
2022/11/10 02:10:45;;;;;;;24.35;11.23;;;;;;;4.78;82.28;97145.44;5093794;28;20101;-61
2022/11/10 02:13:14;;;;;;;20.13;10.18;;;;;;;4.79;82.15;97149.78;5093785;28;20056;-61
2022/11/10 02:15:42;;;;;;;16.65;9.68;;;;;;;4.76;81.22;97149.78;5094018;28;20088;-61
2022/11/10 02:18:09;;;;;;;17.38;8.93;;;;;;;4.75;80.54;97148.94;5093754;28;20151;-61
2022/11/10 02:20:36;;;;;;;18.10;8.57;;;;;;;4.77;79.99;97149.78;5093708;28;20055;-61
2022/11/10 02:23:48;;;;;;;17.00;8.55;;;;;;;4.75;80.35;97154.09;5093400;28;20048;-62
2022/11/10 02:26:19;;;;;;;15.93;8.68;;;;;;;4.70;80.29;97149.81;5093662;28;20101;-62
2022/11/10 02:28:47;;;;;;;16.58;8.18;;;;;;;4.63;80.30;97154.16;5093428;28;20109;-61
2022/11/10 02:31:14;;;;;;;16.45;7.93;;;;;;;4.66;80.16;97155.00;5093581;28;20044;-61
2022/11/10 02:33:42;;;;;;;19.40;9.35;;;;;;;4.71;79.73;97154.13;5093274;28;20095;-61
2022/11/10 02:36:10;;;;;;;13.00;8.30;;;;;;;4.72;79.85;97150.69;5093476;28;20048;-61
2022/11/10 02:38:37;;;;;;;14.25;8.70;;;;;;;4.73;79.53;97155.00;5093442;28;20051;-61
2022/11/10 02:41:06;;;;;;;14.38;8.00;;;;;;;4.72;78.96;97153.28;5093378;28;20044;-61
2022/11/10 02:43:33;;;;;;;13.32;7.85;;;;;;;4.64;78.37;97161.09;5093532;28;20044;-62
2022/11/10 02:46:00;;;;;;;14.95;7.55;;;;;;;4.57;78.08;97157.63;5093398;28;20097;-61
2022/11/10 02:48:27;;;;;;;12.15;7.85;;;;;;;4.49;77.34;97162.00;5093192;28;20418;-61
2022/11/10 02:50:55;;;;;;;8.82;6.82;;;;;;;4.36;77.99;97162.03;5093263;28;20123;-61
2022/11/10 02:53:22;;;;;;;14.88;7.80;;;;;;;4.18;79.30;97165.53;5093151;28;20490;-61
2022/11/10 02:55:49;;;;;;;12.23;7.22;;;;;;;4.11;79.70;97167.28;5093088;28;20044;-61
2022/11/10 02:58:18;;;;;;;13.88;8.20;;;;;;;4.08;79.75;97163.84;5093278;28;20436;-61
2022/11/10 03:00:45;;;;;;;13.02;7.25;;;;;;;4.07;79.68;97175.94;5093219;28;20123;-61
2022/11/10 03:03:12;;;;;;;12.57;7.43;;;;;;;4.01;79.63;97163.84;5093153;28;20387;-61
2022/11/10 03:05:39;;;;;;;16.17;8.23;;;;;;;3.96;80.17;97169.91;5093025;28;20051;-61
2022/11/10 03:08:06;;;;;;;12.98;7.88;;;;;;;3.86;80.30;97167.34;5093046;28;20048;-61
2022/11/10 03:10:33;;;;;;;17.17;7.88;;;;;;;3.82;79.44;97163.00;5093047;28;20048;-61
2022/11/10 03:13:02;;;;;;;14.85;7.97;;;;;;;3.78;78.63;97153.53;5093055;28;20474;-61
2022/11/10 03:15:30;;;;;;;12.07;7.38;;;;;;;3.74;78.28;97157.88;5092952;28;20559;-61
2022/11/10 03:18:02;;;;;;;16.00;7.80;;;;;;;3.60;77.48;97157.84;5093047;28;20078;-61
2022/11/10 03:20:29;;;;;;;12.80;7.72;;;;;;;3.50;77.42;97153.56;5093051;28;20075;-61
2022/11/10 03:23:01;;;;;;;15.52;7.43;;;;;;;3.45;76.78;97163.91;5092852;28;20052;-61
2022/11/10 03:25:28;;;;;;;13.07;7.60;;;;;;;3.39;77.14;97159.59;5092984;28;20048;-61
2022/11/10 03:27:55;;;;;;;12.57;7.38;;;;;;;3.36;77.18;97164.75;5092802;28;20101;-61
2022/11/10 03:30:22;;;;;;;12.10;7.00;;;;;;;3.36;77.05;97167.34;5093064;28;20523;-61
2022/11/10 03:32:51;;;;;;;12.77;7.38;;;;;;;3.22;77.24;97169.91;5092838;28;20090;-61
2022/11/10 03:35:19;;;;;;;13.82;7.68;;;;;;;3.18;77.48;97167.31;5092847;28;20127;-61
2022/11/10 03:37:46;;;;;;;13.65;7.63;;;;;;;3.20;77.16;97171.63;5092799;28;20086;-61
2022/11/10 03:40:13;;;;;;;12.07;6.82;;;;;;;3.09;77.34;97173.31;5092753;28;20051;-61
2022/11/10 03:42:43;;;;;;;13.63;8.57;;;;;;;3.06;77.84;97169.03;5092645;28;20044;-61
2022/11/10 03:45:11;;;;;;;18.85;8.02;;;;;;;3.09;77.87;97168.16;5093720;28;20101;-61
2022/11/10 03:47:38;;;;;;;12.48;7.68;;;;;;;3.14;78.20;97169.91;5096619;28;20101;-61
2022/11/10 03:50:08;;;;;;;21.27;8.00;;;;;;;3.13;77.73;97163.00;5096690;28;20135;-61
2022/11/10 03:52:35;;;;;;;11.93;7.03;;;;;;;3.06;77.86;97170.72;5096563;28;20044;-61
2022/11/10 03:55:02;;;;;;;15.00;7.93;;;;;;;3.06;78.22;97168.16;5096527;28;20051;-61
2022/11/10 03:57:30;;;;;;;17.38;7.85;;;;;;;3.09;78.19;97168.16;5096417;28;20561;-61
2022/11/10 03:59:57;;;;;;;13.60;7.68;;;;;;;3.08;78.29;97164.72;5096358;28;20082;-61
2022/11/10 04:02:24;;;;;;;14.43;8.15;;;;;;;3.02;78.60;97169.88;5096394;28;20090;-61
2022/11/10 04:10:29;;;;;;;16.20;7.88;;;;;;;2.98;78.10;97171.56;5059894;28;20056;-61
2022/11/10 04:15:44;;;;;;;17.17;8.50;;;;;;;2.75;78.67;97166.34;5096273;28;20433;-61
2022/11/10 04:18:23;;;;;;;16.65;9.63;;;;;;;2.67;79.83;97168.91;5096244;28;20418;-61
2022/11/10 04:20:51;;;;;;;18.98;9.10;;;;;;;2.60;80.57;97178.38;5096022;28;20044;-61
2022/11/10 04:23:33;;;;;;;12.73;8.50;;;;;;;2.62;81.55;97181.81;5095771;28;20061;-61
2022/11/10 04:28:49;;;;;;;18.75;9.98;;;;;;;2.78;82.30;97180.16;5095969;28;20135;-61
2022/11/10 04:31:18;;;;;;;20.38;9.63;;;;;;;2.88;81.98;97182.75;5095743;28;20097;-61
2022/11/10 04:33:46;;;;;;;17.33;9.95;;;;;;;2.96;81.67;97180.19;5095652;28;20073;-61
2022/11/10 04:36:15;;;;;;;26.02;9.48;;;;;;;2.99;81.44;97183.66;5095783;28;20105;-60
2022/11/10 04:38:44;;;;;;;15.52;9.10;;;;;;;3.05;80.77;97181.94;5095669;28;20090;-61
2022/11/10 04:41:12;;;;;;;13.05;8.85;;;;;;;3.06;80.10;97184.53;5095595;28;20406;-61
2022/11/10 04:43:42;;;;;;;14.35;8.68;;;;;;;3.05;79.87;97189.69;5095622;28;20044;-61
2022/11/10 04:46:19;;;;;;;17.35;8.82;;;;;;;3.06;79.96;97191.41;5095528;28;20044;-61
2022/11/10 04:48:46;;;;;;;16.80;9.00;;;;;;;3.08;79.81;97189.69;5095225;28;20043;-61
2022/11/10 04:51:14;;;;;;;14.95;7.80;;;;;;;3.06;80.08;97191.41;5095400;28;20043;-61
2022/11/10 04:53:43;;;;;;;19.80;8.95;;;;;;;3.08;79.38;97182.81;5095365;28;20478;-61
2022/11/10 04:56:13;;;;;;;15.23;9.35;;;;;;;3.08;79.01;97188.00;5095226;28;20048;-61
2022/11/10 04:58:45;;;;;;;16.92;8.88;;;;;;;3.02;78.65;97190.56;5095700;28;20137;-61
2022/11/10 05:01:14;;;;;;;16.90;8.57;;;;;;;2.84;78.55;97189.66;5095276;28;20101;-61
2022/11/10 05:03:41;;;;;;;17.88;8.88;;;;;;;2.76;78.00;97196.50;5095202;28;20505;-61
2022/11/10 05:06:09;;;;;;;14.77;8.63;;;;;;;2.77;77.94;97187.91;5095137;28;20119;-61
2022/11/10 05:08:37;;;;;;;14.23;8.75;;;;;;;2.81;78.00;97186.19;5095033;28;20048;-61
2022/11/10 05:11:07;;;;;;;17.52;9.40;;;;;;;2.79;77.23;97186.16;5094981;28;20441;-61
2022/11/10 05:13:34;;;;;;;15.00;8.70;;;;;;;2.81;76.86;97183.59;5095074;28;20445;-61
2022/11/10 05:16:02;;;;;;;15.13;8.52;;;;;;;2.75;77.79;97187.91;5094821;28;20044;-62
2022/11/10 05:18:29;;;;;;;13.20;7.68;;;;;;;2.70;78.19;97186.13;5094806;28;20131;-61
2022/11/10 05:20:56;;;;;;;16.58;9.00;;;;;;;2.71;78.59;97187.88;5095008;28;20048;-61
2022/11/10 05:23:42;;;;;;;14.70;8.82;;;;;;;2.75;78.06;97192.19;5094624;28;20460;-61
2022/11/10 05:26:14;;;;;;;15.73;8.45;;;;;;;2.73;79.76;97202.53;5094731;28;20047;-61
2022/11/10 05:28:43;;;;;;;19.13;9.07;;;;;;;2.78;80.52;97202.56;5094658;28;20044;-61
2022/11/10 05:31:12;;;;;;;18.40;10.27;;;;;;;2.88;80.48;97200.84;5094799;28;20048;-62
2022/11/10 05:33:39;;;;;;;17.25;9.32;;;;;;;2.99;79.98;97204.34;5094577;28;20077;-61
2022/11/10 05:36:11;;;;;;;19.80;9.45;;;;;;;3.13;79.19;97216.44;5094547;28;20486;-62
2022/11/10 05:38:38;;;;;;;17.77;10.23;;;;;;;3.21;78.89;97201.81;5094507;28;20503;-61
2022/11/10 05:41:06;;;;;;;14.73;8.75;;;;;;;3.27;78.97;97203.53;5094630;28;20112;-61
2022/11/10 05:43:35;;;;;;;15.43;8.55;;;;;;;3.35;79.49;97217.34;5094627;28;20044;-61
2022/11/10 05:46:02;;;;;;;16.02;10.30;;;;;;;3.79;80.16;97213.06;5094300;28;20044;-61
2022/11/10 05:48:29;;;;;;;18.25;10.05;;;;;;;4.61;77.49;97208.59;5094236;28;20125;-61
2022/11/10 05:50:56;;;;;;;20.42;9.65;;;;;;;5.54;73.01;97219.38;5094296;28;20083;-62
2022/11/10 05:53:23;;;;;;;14.50;8.90;;;;;;;6.49;69.56;97218.56;5094132;28;20131;-61
2022/11/10 05:55:52;;;;;;;13.25;7.45;;;;;;;7.42;65.25;97219.16;5094282;28;20494;-61
2022/11/10 05:58:19;;;;;;;14.43;7.97;;;;;;;8.31;62.34;97222.09;5094220;28;20043;-61
2022/11/10 06:00:47;;;;;;;12.23;7.75;;;;;;;9.23;61.01;97215.94;5093946;28;20139;-61
2022/11/10 06:03:16;;;;;;;10.38;6.47;;;;;;;10.07;57.46;97217.50;5094047;28;20051;-62
2022/11/10 06:05:43;;;;;;;11.68;6.30;;;;;;;10.89;55.29;97224.97;5093908;28;20044;-61
2022/11/10 06:08:11;;;;;;;10.18;6.47;;;;;;;11.75;53.35;97222.44;5093592;28;20048;-61
2022/11/10 06:10:41;;;;;;;9.80;5.88;;;;;;;12.58;50.37;97223.19;5093809;28;20404;-61
2022/11/10 06:13:09;;;;;;;10.50;6.70;;;;;;;13.29;48.53;97226.78;5093814;28;20083;-61
2022/11/10 06:15:40;;;;;;;11.23;6.07;;;;;;;14.10;47.52;97228.91;5093797;28;20084;-61
2022/11/10 06:18:08;;;;;;;7.55;5.22;;;;;;;14.89;46.17;97232.63;5093712;28;20136;-61
2022/11/10 06:20:35;;;;;;;8.50;5.85;;;;;;;15.58;43.84;97233.91;5093826;28;20052;-61
2022/11/10 06:23:05;;;;;;;8.10;5.75;;;;;;;16.21;42.10;97229.19;5093466;28;20048;-61
2022/11/10 06:25:34;;;;;;;9.30;5.72;;;;;;;16.62;40.99;97234.13;5093762;28;20048;-61
2022/11/10 06:28:03;;;;;;;10.07;6.18;;;;;;;17.17;40.41;97248.09;5093635;28;20048;-61
2022/11/10 06:30:32;;;;;;;10.52;6.45;;;;;;;17.67;39.82;97237.44;5093671;28;20047;-61
2022/11/10 06:32:59;;;;;;;7.05;5.20;;;;;;;18.19;39.15;97243.38;5093467;28;20048;-61
2022/11/10 06:35:29;;;;;;;9.40;6.25;;;;;;;18.54;38.08;97249.34;5093481;28;20072;-61
2022/11/10 06:38:01;;;;;;;8.73;5.57;;;;;;;18.96;37.39;97248.66;5093412;28;20429;-61
2022/11/10 06:40:28;;;;;;;6.03;4.50;;;;;;;19.48;36.78;97247.25;5093297;28;20052;-61
2022/11/10 06:42:55;;;;;;;5.43;4.28;;;;;;;20.06;35.63;97246.28;5093646;28;20075;-62
2022/11/10 06:45:23;;;;;;;9.30;5.07;;;;;;;20.54;34.82;97244.91;5093454;28;20048;-60
2022/11/10 06:47:59;;;;;;;6.97;4.78;;;;;;;20.94;34.15;97241.34;5093387;28;20046;-61
2022/11/10 06:50:28;;;;;;;6.07;4.68;;;;;;;21.27;34.07;97244.41;5093193;28;20048;-60
2022/11/10 06:52:55;;;;;;;5.75;4.60;;;;;;;21.56;33.01;97250.34;5093314;28;20080;-61
2022/11/10 06:55:23;;;;;;;8.82;4.97;;;;;;;21.73;32.72;97247.41;5093213;28;20101;-61
2022/11/10 06:57:50;;;;;;;7.60;5.22;;;;;;;21.96;32.49;97254.59;5093220;28;20071;-61
2022/11/10 07:00:18;;;;;;;6.78;4.90;;;;;;;22.42;31.98;97241.47;5093406;28;20127;-61
2022/11/10 07:02:45;;;;;;;9.32;5.05;;;;;;;22.59;32.21;97250.03;5093085;28;20059;-61
2022/11/10 07:05:14;;;;;;;10.30;5.28;;;;;;;22.78;31.80;97245.97;5093084;28;20048;-61
2022/11/10 07:07:42;;;;;;;6.38;5.13;;;;;;;22.92;31.43;97245.75;5093379;28;20086;-61
2022/11/10 07:10:10;;;;;;;6.18;5.45;;;;;;;23.29;31.58;97247.34;5092982;28;20568;-61
2022/11/10 07:12:37;;;;;;;8.68;5.60;;;;;;;23.76;31.04;97251.69;5093059;28;20410;-61
2022/11/10 07:15:05;;;;;;;8.60;5.63;;;;;;;24.09;30.25;97254.41;5093018;28;20086;-61
2022/11/10 07:17:32;;;;;;;7.35;5.60;;;;;;;24.61;29.68;97251.91;5092915;28;20520;-61
2022/11/10 07:19:59;;;;;;;6.97;5.32;;;;;;;24.77;29.34;97249.75;5093677;28;20485;-61
2022/11/10 07:22:26;;;;;;;7.20;5.50;;;;;;;25.03;29.67;97252.88;5097176;28;20047;-61
2022/11/10 07:24:55;;;;;;;9.50;5.72;;;;;;;25.43;29.47;97258.44;5097110;28;20094;-61
2022/11/10 07:27:23;;;;;;;8.00;6.40;;;;;;;25.80;28.86;97257.00;5097132;28;20044;-61
2022/11/10 07:29:50;;;;;;;8.45;5.90;;;;;;;25.97;28.56;97256.34;5096914;28;20109;-61
2022/11/10 07:32:17;;;;;;;7.10;5.43;;;;;;;26.21;28.32;97256.91;5096939;28;20143;-61
2022/11/10 07:34:44;;;;;;;7.40;5.60;;;;;;;26.37;28.41;97257.25;5096882;28;20386;-61
2022/11/10 07:37:11;;;;;;;7.93;6.13;;;;;;;26.54;27.77;97249.47;5096832;28;20044;-61
2022/11/10 07:39:40;;;;;;;9.40;6.07;;;;;;;26.86;27.69;97250.13;5096780;28;20044;-61
2022/11/10 07:42:09;;;;;;;8.30;6.03;;;;;;;26.80;27.83;97251.56;5096694;28;20044;-61
2022/11/10 07:44:36;;;;;;;10.32;6.05;;;;;;;26.93;28.01;97259.28;5096704;28;20391;-61
2022/11/10 07:47:03;;;;;;;9.35;6.70;;;;;;;27.42;27.18;97257.50;5096561;28;20553;-61
2022/11/10 07:49:30;;;;;;;7.65;5.55;;;;;;;27.42;27.23;97263.69;5096599;28;20105;-61
2022/11/10 07:51:58;;;;;;;8.57;6.07;;;;;;;27.37;27.21;97264.16;5096553;28;20052;-61
2022/11/10 07:54:25;;;;;;;9.18;6.57;;;;;;;26.77;28.43;97253.69;5096436;28;20051;-61
2022/11/10 07:56:53;;;;;;;8.55;6.55;;;;;;;25.82;29.51;97263.91;5096518;28;20054;-61
2022/11/10 07:59:21;;;;;;;11.73;7.45;;;;;;;25.26;30.37;97259.91;5096386;28;20097;-61
2022/11/10 08:01:49;;;;;;;13.75;8.32;;;;;;;24.74;31.32;97253.50;5096345;28;20177;-61
2022/11/10 08:04:16;;;;;;;12.85;6.82;;;;;;;23.93;32.31;97258.31;5096317;28;20051;-61
2022/11/10 08:06:43;;;;;;;9.52;7.75;;;;;;;22.95;34.29;97257.97;5096254;28;20047;-61
2022/11/10 08:09:11;;;;;;;9.50;7.97;;;;;;;22.22;35.95;97258.97;5096241;28;20094;-61
2022/11/10 08:11:39;;;;;;;9.48;7.28;;;;;;;21.26;37.98;97254.22;5096404;28;20058;-61
2022/11/10 08:14:06;;;;;;;17.15;9.55;;;;;;;20.67;39.20;97255.53;5095998;28;20097;-61
2022/11/10 08:16:35;;;;;;;11.35;8.77;;;;;;;20.08;40.28;97263.81;5096081;28;20044;-61
2022/11/10 08:19:02;;;;;;;15.02;7.88;;;;;;;19.69;42.02;97263.59;5096113;28;20078;-61
2022/11/10 08:21:29;;;;;;;14.75;7.72;;;;;;;19.46;42.32;97265.06;5096010;28;20086;-60
2022/11/10 08:23:56;;;;;;;12.82;8.15;;;;;;;19.05;43.55;97254.25;5095757;28;20113;-61
2022/11/10 08:26:24;;;;;;;8.82;7.40;;;;;;;18.87;44.05;97255.38;5095876;28;20048;-61
2022/11/10 08:28:51;;;;;;;14.05;8.35;;;;;;;18.65;44.53;97257.53;5095847;28;20085;-61
2022/11/10 08:31:18;;;;;;;12.80;8.00;;;;;;;18.42;45.87;97265.03;5095237;28;20087;-61
2022/11/10 08:33:47;;;;;;;12.77;7.43;;;;;;;18.23;46.16;97261.72;5095982;28;20514;-61
2022/11/10 08:36:14;;;;;;;10.73;7.07;;;;;;;18.23;46.68;97256.44;5095791;28;20562;-60
2022/11/10 08:38:41;;;;;;;10.20;7.00;;;;;;;18.19;46.64;97253.97;5095618;28;20117;-60
2022/11/10 08:41:08;;;;;;;11.68;7.85;;;;;;;17.80;47.72;97258.78;5095640;28;20410;-61
2022/11/10 08:43:35;;;;;;;12.73;7.85;;;;;;;17.67;47.92;97255.13;5095779;28;20098;-60
2022/11/10 08:46:03;;;;;;;13.82;8.70;;;;;;;17.57;48.17;97257.41;5095532;28;20055;-61
2022/11/10 08:48:30;;;;;;;12.48;8.95;;;;;;;17.57;48.21;97251.28;5095403;28;20048;-60
2022/11/10 08:51:00;;;;;;;12.50;7.47;;;;;;;17.56;48.31;97261.00;5095465;28;20452;-61
2022/11/10 08:53:27;;;;;;;16.73;7.97;;;;;;;17.59;48.78;97252.91;5095302;28;20074;-61
2022/11/10 08:55:59;;;;;;;12.32;7.88;;;;;;;17.73;47.92;97259.22;5095286;28;20516;-61
2022/11/10 08:58:26;;;;;;;11.25;8.02;;;;;;;17.67;48.35;97255.94;5095207;28;20048;-60
2022/11/10 09:00:53;;;;;;;13.98;8.77;;;;;;;17.58;47.81;97258.28;5095228;28;20097;-60
2022/11/10 09:03:22;;;;;;;11.70;8.05;;;;;;;17.65;47.80;97252.56;5095068;28;20098;-60
2022/11/10 09:05:50;;;;;;;13.57;9.77;;;;;;;17.60;48.44;97259.03;5095225;28;20059;-61
2022/11/10 09:08:19;;;;;;;13.60;8.95;;;;;;;17.61;48.24;97258.94;5095263;28;20044;-61
2022/11/10 09:10:49;;;;;;;9.73;7.45;;;;;;;17.69;48.33;97255.88;5095014;28;20491;-61
2022/11/10 09:13:16;;;;;;;16.35;8.80;;;;;;;17.67;48.12;97257.78;5095194;28;20562;-60
2022/11/10 09:15:44;;;;;;;11.23;8.45;;;;;;;17.62;48.72;97250.09;5094939;28;20044;-60
2022/11/10 09:18:13;;;;;;;11.95;8.00;;;;;;;17.65;48.74;97257.84;5094995;28;20465;-61
2022/11/10 09:20:41;;;;;;;9.88;6.93;;;;;;;17.58;48.92;97253.81;5095080;28;20059;-61
2022/11/10 09:23:10;;;;;;;13.02;8.18;;;;;;;17.47;49.62;97257.06;5094814;28;20044;-60
2022/11/10 09:25:40;;;;;;;12.93;8.05;;;;;;;17.46;49.86;97252.69;5094965;28;20051;-60
2022/11/10 09:28:12;;;;;;;11.65;7.95;;;;;;;17.55;49.95;97251.38;5094724;28;20135;-60
2022/11/10 09:30:40;;;;;;;12.50;7.90;;;;;;;17.32;49.47;97244.66;5094785;28;20059;-60
2022/11/10 09:33:07;;;;;;;11.43;7.82;;;;;;;17.38;49.54;97249.63;5094759;28;20433;-60
2022/11/10 09:35:35;;;;;;;12.02;7.78;;;;;;;17.43;50.15;97244.97;5094623;28;20051;-60
2022/11/10 09:38:02;;;;;;;12.10;8.15;;;;;;;17.30;50.34;97248.25;5094616;28;20486;-60
2022/11/10 09:40:38;;;;;;;16.08;8.73;;;;;;;17.29;50.80;97245.69;5094412;28;20101;-60
2022/11/10 09:43:17;;;;;;;10.70;8.30;;;;;;;17.35;50.64;97245.38;5093555;28;20066;-60
2022/11/10 09:45:50;;;;;;;15.77;8.88;;;;;;;17.33;50.33;97244.59;5094303;28;20071;-60
2022/11/10 09:48:22;;;;;;;18.65;8.75;;;;;;;17.13;51.45;97241.22;5094354;28;20052;-60
2022/11/10 09:50:54;;;;;;;21.02;10.25;;;;;;;17.09;51.35;97247.63;5094131;28;20051;-61
2022/11/10 09:53:25;;;;;;;16.95;10.07;;;;;;;17.09;51.46;97239.69;5094277;28;20067;-60
2022/11/10 09:55:56;;;;;;;17.55;10.27;;;;;;;17.17;51.77;97240.16;5094495;28;20077;-61
2022/11/10 09:58:32;;;;;;;17.70;10.68;;;;;;;17.17;51.75;97242.78;5094087;28;20040;-61
2022/11/10 10:01:05;;;;;;;15.75;10.45;;;;;;;17.00;51.85;97246.28;5094073;28;20048;-61
2022/11/10 10:03:33;;;;;;;20.15;10.43;;;;;;;17.03;51.73;97243.50;5094091;28;20401;-61
2022/11/10 10:06:09;;;;;;;21.83;10.70;;;;;;;17.02;51.81;97238.28;5094294;28;20105;-61
2022/11/10 10:08:48;;;;;;;19.73;11.07;;;;;;;17.01;52.17;97239.22;5094056;28;20059;-61
2022/11/10 10:11:27;;;;;;;17.63;10.45;;;;;;;16.92;52.17;97235.28;5094010;28;20051;-61
2022/11/10 10:14:22;;;;;;;19.88;11.23;;;;;;;16.77;52.96;97229.84;5093814;28;20051;-61
2022/11/10 10:16:59;;;;;;;20.20;11.48;;;;;;;16.88;52.83;97233.72;5093920;28;20074;-61
2022/11/10 10:19:37;;;;;;;20.20;11.13;;;;;;;16.92;52.15;97237.94;5093922;28;20044;-61
2022/11/10 10:22:26;;;;;;;19.98;11.40;;;;;;;16.85;52.78;97229.47;5093684;28;20048;-61
2022/11/10 10:24:58;;;;;;;20.73;12.38;;;;;;;16.95;52.21;97239.53;5093672;28;20056;-61
2022/11/10 10:27:26;;;;;;;25.77;12.27;;;;;;;16.78;52.63;97238.66;5093885;28;20486;-61
2022/11/10 10:29:55;;;;;;;25.98;13.00;;;;;;;16.61;53.01;97234.22;5093556;28;20123;-60
2022/11/10 10:32:22;;;;;;;23.67;12.85;;;;;;;16.73;52.90;97233.59;5093431;28;20143;-61
2022/11/10 10:34:49;;;;;;;28.40;12.70;;;;;;;16.83;53.13;97238.41;5093464;28;20052;-61
2022/11/10 10:37:25;;;;;;;26.17;14.15;;;;;;;16.83;52.96;97230.47;5093629;28;20051;-61
2022/11/10 10:39:54;;;;;;;27.50;13.32;;;;;;;16.79;52.87;97230.63;5093374;28;20040;-61
2022/11/10 10:42:30;;;;;;;27.02;14.20;;;;;;;16.82;52.51;97220.84;5093424;28;20043;-61
2022/11/10 10:45:15;;;;;;;31.52;14.45;;;;;;;16.76;52.95;97222.88;5093556;28;20048;-61
2022/11/10 10:47:43;;;;;;;24.95;14.73;;;;;;;16.73;53.26;97223.03;5093383;28;20056;-61
2022/11/10 10:50:24;;;;;;;27.55;13.90;;;;;;;16.64;53.29;97213.81;5093238;28;20524;-61
2022/11/10 10:53:08;;;;;;;30.10;15.23;;;;;;;16.54;53.31;97224.00;5093177;28;20051;-61
2022/11/10 10:55:37;;;;;;;30.33;15.05;;;;;;;16.50;53.58;97214.50;5093062;28;20489;-61
2022/11/10 10:58:06;;;;;;;35.70;16.27;;;;;;;16.55;53.61;97211.63;5093103;28;20506;-60
2022/11/10 11:00:43;;;;;;;32.22;16.30;;;;;;;16.47;53.43;97213.81;5093167;28;20044;-61
2022/11/10 11:03:19;;;;;;;28.67;15.55;;;;;;;16.58;53.34;97213.28;5093058;28;20079;-61
2022/11/10 11:06:01;;;;;;;36.15;16.05;;;;;;;16.47;53.17;97206.75;5093248;28;20478;-61
2022/11/10 11:08:28;;;;;;;35.13;16.58;;;;;;;16.57;53.56;97201.00;5093013;28;20101;-61
2022/11/10 11:10:55;;;;;;;37.22;17.40;;;;;;;16.63;53.11;97209.47;5092938;28;20059;-61
2022/11/10 11:13:25;;;;;;;33.65;16.83;;;;;;;16.66;53.68;97211.94;5093093;28;20040;-61
2022/11/10 11:16:01;;;;;;;41.22;17.65;;;;;;;16.57;53.43;97208.91;5093086;28;20052;-60
2022/11/10 11:18:30;;;;;;;40.60;16.42;;;;;;;16.53;53.25;97197.66;5093020;28;20109;-61
2022/11/10 11:21:02;;;;;;;28.02;14.93;;;;;;;16.52;53.82;97203.88;5092892;28;20093;-61
2022/11/10 11:23:46;;;;;;;38.00;16.08;;;;;;;16.55;53.75;97206.34;5092857;28;20051;-61
2022/11/10 11:26:20;;;;;;;36.67;15.73;;;;;;;16.60;53.25;97198.19;5093019;28;20106;-61
2022/11/10 11:29:00;;;;;;;37.15;16.80;;;;;;;16.66;53.67;97201.38;5092934;28;20474;-61
2022/11/10 11:31:39;;;;;;;31.35;16.48;;;;;;;16.60;53.08;97204.34;5092826;28;20051;-60
2022/11/10 11:34:18;;;;;;;32.20;16.25;;;;;;;16.59;53.36;97199.13;5092864;28;20097;-61
2022/11/10 11:36:52;;;;;;;39.50;15.48;;;;;;;16.54;53.71;97197.59;5092868;28;20051;-61
2022/11/10 11:39:34;;;;;;;29.58;15.50;;;;;;;16.50;53.49;97196.03;5093066;28;20047;-60
2022/11/10 11:42:17;;;;;;;30.90;16.33;;;;;;;16.57;53.35;97198.34;5092782;28;20044;-61
2022/11/10 11:45:01;;;;;;;28.88;15.02;;;;;;;16.47;53.56;97197.97;5092777;28;20231;-60
2022/11/10 11:47:45;;;;;;;38.47;16.95;;;;;;;16.45;53.86;97191.91;5092659;28;20486;-60
2022/11/10 11:50:23;;;;;;;44.08;16.27;;;;;;;16.53;53.68;97195.03;5092726;28;20539;-60
2022/11/10 11:53:00;;;;;;;34.00;15.45;;;;;;;16.59;53.37;97196.50;5092613;28;20059;-60
2022/11/10 11:55:42;;;;;;;28.83;13.95;;;;;;;16.61;52.90;97195.47;5092688;28;20142;-61